sensor_id;sensor_type;location;lat;lon;timestamp;P1;durP1;ratioP1;P2;durP2;ratioP2
76127;SDS011;64873;50.102;14.434;2024-01-15T00:01:25;12.13;;;6.03;;
76127;SDS011;64873;50.102;14.434;2024-01-15T00:03:51;16.90;;;8.20;;
76127;SDS011;64873;50.102;14.434;2024-01-15T00:06:16;11.32;;;6.13;;
76127;SDS011;64873;50.102;14.434;2024-01-15T00:08:41;15.82;;;7.13;;
76127;SDS011;64873;50.102;14.434;2024-01-15T00:11:07;20.00;;;8.07;;
76127;SDS011;64873;50.102;14.434;2024-01-15T00:13:32;14.48;;;6.28;;
76127;SDS011;64873;50.102;14.434;2024-01-15T00:15:58;13.90;;;7.20;;
76127;SDS011;64873;50.102;14.434;2024-01-15T00:18:23;13.02;;;7.03;;
76127;SDS011;64873;50.102;14.434;2024-01-15T00:20:48;15.05;;;6.75;;
76127;SDS011;64873;50.102;14.434;2024-01-15T00:23:14;15.18;;;7.00;;
76127;SDS011;64873;50.102;14.434;2024-01-15T00:25:40;14.93;;;7.60;;
76127;SDS011;64873;50.102;14.434;2024-01-15T00:28:06;18.08;;;8.68;;
76127;SDS011;64873;50.102;14.434;2024-01-15T00:30:31;19.20;;;8.30;;
76127;SDS011;64873;50.102;14.434;2024-01-15T00:32:57;16.40;;;7.32;;
76127;SDS011;64873;50.102;14.434;2024-01-15T00:35:22;16.50;;;8.60;;
76127;SDS011;64873;50.102;14.434;2024-01-15T00:37:47;16.60;;;7.60;;
76127;SDS011;64873;50.102;14.434;2024-01-15T00:40:13;20.27;;;7.90;;
76127;SDS011;64873;50.102;14.434;2024-01-15T00:42:38;14.85;;;7.10;;
76127;SDS011;64873;50.102;14.434;2024-01-15T00:45:04;15.63;;;7.68;;
76127;SDS011;64873;50.102;14.434;2024-01-15T00:47:31;20.23;;;8.50;;
76127;SDS011;64873;50.102;14.434;2024-01-15T00:49:57;18.33;;;8.63;;
76127;SDS011;64873;50.102;14.434;2024-01-15T00:52:22;16.52;;;8.20;;
76127;SDS011;64873;50.102;14.434;2024-01-15T00:54:48;19.73;;;9.50;;
76127;SDS011;64873;50.102;14.434;2024-01-15T00:57:13;17.13;;;8.38;;
76127;SDS011;64873;50.102;14.434;2024-01-15T00:59:38;15.13;;;7.50;;
76127;SDS011;64873;50.102;14.434;2024-01-15T01:02:04;19.88;;;8.43;;
76127;SDS011;64873;50.102;14.434;2024-01-15T01:04:29;18.38;;;8.93;;
76127;SDS011;64873;50.102;14.434;2024-01-15T01:06:55;18.17;;;8.82;;
76127;SDS011;64873;50.102;14.434;2024-01-15T01:09:20;17.15;;;7.63;;
76127;SDS011;64873;50.102;14.434;2024-01-15T01:11:46;16.42;;;7.55;;
76127;SDS011;64873;50.102;14.434;2024-01-15T01:14:11;18.63;;;9.63;;
76127;SDS011;64873;50.102;14.434;2024-01-15T01:16:37;19.23;;;10.32;;
76127;SDS011;64873;50.102;14.434;2024-01-15T01:19:04;19.38;;;8.40;;
76127;SDS011;64873;50.102;14.434;2024-01-15T01:21:31;16.23;;;9.30;;
76127;SDS011;64873;50.102;14.434;2024-01-15T01:23:56;14.75;;;7.63;;
76127;SDS011;64873;50.102;14.434;2024-01-15T01:26:22;23.73;;;12.43;;
76127;SDS011;64873;50.102;14.434;2024-01-15T01:28:47;18.02;;;8.15;;
76127;SDS011;64873;50.102;14.434;2024-01-15T01:31:12;16.38;;;8.45;;
76127;SDS011;64873;50.102;14.434;2024-01-15T01:33:41;15.05;;;6.95;;
76127;SDS011;64873;50.102;14.434;2024-01-15T01:36:07;21.67;;;10.60;;
76127;SDS011;64873;50.102;14.434;2024-01-15T01:38:36;15.95;;;8.05;;
76127;SDS011;64873;50.102;14.434;2024-01-15T01:41:01;21.83;;;9.10;;
76127;SDS011;64873;50.102;14.434;2024-01-15T01:43:27;15.95;;;7.90;;
76127;SDS011;64873;50.102;14.434;2024-01-15T01:45:53;17.98;;;9.13;;
76127;SDS011;64873;50.102;14.434;2024-01-15T01:48:21;16.73;;;7.90;;
76127;SDS011;64873;50.102;14.434;2024-01-15T01:50:50;16.95;;;7.47;;
76127;SDS011;64873;50.102;14.434;2024-01-15T01:53:15;15.50;;;7.82;;
76127;SDS011;64873;50.102;14.434;2024-01-15T01:55:41;16.58;;;7.70;;
76127;SDS011;64873;50.102;14.434;2024-01-15T01:58:06;23.10;;;11.25;;
76127;SDS011;64873;50.102;14.434;2024-01-15T02:00:32;16.65;;;8.07;;
76127;SDS011;64873;50.102;14.434;2024-01-15T02:03:00;24.67;;;10.48;;
76127;SDS011;64873;50.102;14.434;2024-01-15T02:05:25;15.65;;;7.82;;
76127;SDS011;64873;50.102;14.434;2024-01-15T02:07:52;21.73;;;8.30;;
76127;SDS011;64873;50.102;14.434;2024-01-15T02:10:17;13.45;;;7.75;;
76127;SDS011;64873;50.102;14.434;2024-01-15T02:12:43;17.90;;;7.78;;
76127;SDS011;64873;50.102;14.434;2024-01-15T02:15:09;16.98;;;8.13;;
76127;SDS011;64873;50.102;14.434;2024-01-15T02:17:34;16.67;;;8.55;;
76127;SDS011;64873;50.102;14.434;2024-01-15T02:19:59;17.00;;;8.63;;
76127;SDS011;64873;50.102;14.434;2024-01-15T02:22:25;14.82;;;7.40;;
76127;SDS011;64873;50.102;14.434;2024-01-15T02:24:50;17.80;;;8.65;;
76127;SDS011;64873;50.102;14.434;2024-01-15T02:27:16;18.30;;;8.07;;
76127;SDS011;64873;50.102;14.434;2024-01-15T02:29:42;21.63;;;10.18;;
76127;SDS011;64873;50.102;14.434;2024-01-15T02:32:08;21.77;;;9.65;;
76127;SDS011;64873;50.102;14.434;2024-01-15T02:34:34;17.83;;;9.25;;
76127;SDS011;64873;50.102;14.434;2024-01-15T02:36:59;19.80;;;8.82;;
76127;SDS011;64873;50.102;14.434;2024-01-15T02:39:25;16.45;;;8.93;;
76127;SDS011;64873;50.102;14.434;2024-01-15T02:44:35;18.60;;;8.27;;
76127;SDS011;64873;50.102;14.434;2024-01-15T02:47:00;20.88;;;8.75;;
76127;SDS011;64873;50.102;14.434;2024-01-15T02:49:25;18.70;;;8.52;;
76127;SDS011;64873;50.102;14.434;2024-01-15T02:51:51;21.52;;;10.32;;
76127;SDS011;64873;50.102;14.434;2024-01-15T02:54:16;18.17;;;8.77;;
76127;SDS011;64873;50.102;14.434;2024-01-15T02:56:42;20.33;;;9.43;;
76127;SDS011;64873;50.102;14.434;2024-01-15T02:59:07;23.67;;;10.88;;
76127;SDS011;64873;50.102;14.434;2024-01-15T03:01:32;24.95;;;10.88;;
76127;SDS011;64873;50.102;14.434;2024-01-15T03:03:58;18.48;;;9.18;;
76127;SDS011;64873;50.102;14.434;2024-01-15T03:06:23;17.63;;;8.68;;
76127;SDS011;64873;50.102;14.434;2024-01-15T03:08:49;19.08;;;8.27;;
76127;SDS011;64873;50.102;14.434;2024-01-15T03:11:14;23.45;;;9.45;;
76127;SDS011;64873;50.102;14.434;2024-01-15T03:13:39;18.80;;;8.77;;
76127;SDS011;64873;50.102;14.434;2024-01-15T03:16:05;18.88;;;9.40;;
76127;SDS011;64873;50.102;14.434;2024-01-15T03:18:31;19.23;;;9.27;;
76127;SDS011;64873;50.102;14.434;2024-01-15T03:20:56;19.88;;;9.35;;
76127;SDS011;64873;50.102;14.434;2024-01-15T03:23:22;22.05;;;10.40;;
76127;SDS011;64873;50.102;14.434;2024-01-15T03:25:47;22.45;;;11.30;;
76127;SDS011;64873;50.102;14.434;2024-01-15T03:28:13;23.67;;;12.05;;
76127;SDS011;64873;50.102;14.434;2024-01-15T03:30:38;19.83;;;9.80;;
76127;SDS011;64873;50.102;14.434;2024-01-15T03:33:03;14.50;;;7.47;;
76127;SDS011;64873;50.102;14.434;2024-01-15T03:35:29;23.30;;;10.15;;
76127;SDS011;64873;50.102;14.434;2024-01-15T03:37:55;28.25;;;13.18;;
76127;SDS011;64873;50.102;14.434;2024-01-15T03:40:21;24.42;;;11.65;;
76127;SDS011;64873;50.102;14.434;2024-01-15T03:42:46;20.48;;;11.10;;
76127;SDS011;64873;50.102;14.434;2024-01-15T03:45:12;23.50;;;10.68;;
76127;SDS011;64873;50.102;14.434;2024-01-15T03:47:37;27.73;;;11.07;;
76127;SDS011;64873;50.102;14.434;2024-01-15T03:50:02;26.17;;;12.75;;
76127;SDS011;64873;50.102;14.434;2024-01-15T03:52:28;19.60;;;9.43;;
76127;SDS011;64873;50.102;14.434;2024-01-15T03:54:54;25.08;;;10.88;;
76127;SDS011;64873;50.102;14.434;2024-01-15T03:57:20;27.60;;;10.98;;
76127;SDS011;64873;50.102;14.434;2024-01-15T03:59:45;20.48;;;10.15;;
76127;SDS011;64873;50.102;14.434;2024-01-15T04:02:12;20.60;;;9.07;;
76127;SDS011;64873;50.102;14.434;2024-01-15T04:04:40;23.15;;;10.73;;
76127;SDS011;64873;50.102;14.434;2024-01-15T04:07:07;15.40;;;8.10;;
76127;SDS011;64873;50.102;14.434;2024-01-15T04:09:32;22.38;;;11.73;;
76127;SDS011;64873;50.102;14.434;2024-01-15T04:11:58;27.13;;;14.18;;
76127;SDS011;64873;50.102;14.434;2024-01-15T04:14:24;22.50;;;10.20;;
76127;SDS011;64873;50.102;14.434;2024-01-15T04:16:49;13.02;;;6.47;;
76127;SDS011;64873;50.102;14.434;2024-01-15T04:19:14;15.13;;;7.95;;
76127;SDS011;64873;50.102;14.434;2024-01-15T04:21:40;14.57;;;7.57;;
76127;SDS011;64873;50.102;14.434;2024-01-15T04:24:06;25.48;;;11.45;;
76127;SDS011;64873;50.102;14.434;2024-01-15T04:26:31;19.80;;;8.25;;
76127;SDS011;64873;50.102;14.434;2024-01-15T04:28:57;19.63;;;10.05;;
76127;SDS011;64873;50.102;14.434;2024-01-15T04:31:24;19.85;;;9.90;;
76127;SDS011;64873;50.102;14.434;2024-01-15T04:33:51;19.55;;;9.40;;
76127;SDS011;64873;50.102;14.434;2024-01-15T04:36:17;20.95;;;10.82;;
76127;SDS011;64873;50.102;14.434;2024-01-15T04:38:42;20.88;;;9.05;;
76127;SDS011;64873;50.102;14.434;2024-01-15T04:41:12;15.20;;;8.00;;
76127;SDS011;64873;50.102;14.434;2024-01-15T04:43:38;22.67;;;10.70;;
76127;SDS011;64873;50.102;14.434;2024-01-15T04:46:05;20.35;;;10.30;;
76127;SDS011;64873;50.102;14.434;2024-01-15T04:48:31;17.13;;;8.38;;
76127;SDS011;64873;50.102;14.434;2024-01-15T04:50:56;16.55;;;7.32;;
76127;SDS011;64873;50.102;14.434;2024-01-15T04:53:22;23.65;;;13.13;;
76127;SDS011;64873;50.102;14.434;2024-01-15T04:55:47;15.63;;;7.28;;
76127;SDS011;64873;50.102;14.434;2024-01-15T04:58:12;19.70;;;8.00;;
76127;SDS011;64873;50.102;14.434;2024-01-15T05:00:38;15.93;;;6.97;;
76127;SDS011;64873;50.102;14.434;2024-01-15T05:03:04;14.23;;;7.43;;
76127;SDS011;64873;50.102;14.434;2024-01-15T05:05:29;19.08;;;9.27;;
76127;SDS011;64873;50.102;14.434;2024-01-15T05:07:55;17.38;;;7.50;;
76127;SDS011;64873;50.102;14.434;2024-01-15T05:10:20;21.13;;;10.40;;
76127;SDS011;64873;50.102;14.434;2024-01-15T05:12:45;16.65;;;7.85;;
76127;SDS011;64873;50.102;14.434;2024-01-15T05:15:11;14.85;;;8.80;;
76127;SDS011;64873;50.102;14.434;2024-01-15T05:17:36;15.32;;;6.47;;
76127;SDS011;64873;50.102;14.434;2024-01-15T05:20:02;15.60;;;7.15;;
76127;SDS011;64873;50.102;14.434;2024-01-15T05:22:28;13.32;;;6.90;;
76127;SDS011;64873;50.102;14.434;2024-01-15T05:24:53;20.75;;;10.55;;
76127;SDS011;64873;50.102;14.434;2024-01-15T05:27:19;17.17;;;9.00;;
76127;SDS011;64873;50.102;14.434;2024-01-15T05:29:44;15.18;;;7.10;;
76127;SDS011;64873;50.102;14.434;2024-01-15T05:32:10;21.35;;;10.20;;
76127;SDS011;64873;50.102;14.434;2024-01-15T05:34:35;17.35;;;9.32;;
76127;SDS011;64873;50.102;14.434;2024-01-15T05:37:00;16.52;;;7.72;;
76127;SDS011;64873;50.102;14.434;2024-01-15T05:39:26;16.05;;;7.13;;
76127;SDS011;64873;50.102;14.434;2024-01-15T05:41:51;19.65;;;9.02;;
76127;SDS011;64873;50.102;14.434;2024-01-15T05:44:17;16.15;;;8.75;;
76127;SDS011;64873;50.102;14.434;2024-01-15T05:46:42;19.30;;;7.95;;
76127;SDS011;64873;50.102;14.434;2024-01-15T05:49:08;16.38;;;8.77;;
76127;SDS011;64873;50.102;14.434;2024-01-15T05:51:33;17.85;;;8.77;;
76127;SDS011;64873;50.102;14.434;2024-01-15T05:53:59;18.35;;;8.75;;
76127;SDS011;64873;50.102;14.434;2024-01-15T05:56:24;17.92;;;7.05;;
76127;SDS011;64873;50.102;14.434;2024-01-15T05:58:50;13.63;;;6.30;;
76127;SDS011;64873;50.102;14.434;2024-01-15T06:01:15;19.02;;;8.32;;
76127;SDS011;64873;50.102;14.434;2024-01-15T06:03:41;13.23;;;6.32;;
76127;SDS011;64873;50.102;14.434;2024-01-15T06:06:06;18.45;;;8.75;;
76127;SDS011;64873;50.102;14.434;2024-01-15T06:08:33;17.15;;;7.93;;
76127;SDS011;64873;50.102;14.434;2024-01-15T06:10:59;16.60;;;7.85;;
76127;SDS011;64873;50.102;14.434;2024-01-15T06:13:24;16.17;;;6.60;;
76127;SDS011;64873;50.102;14.434;2024-01-15T06:15:50;17.00;;;7.35;;
76127;SDS011;64873;50.102;14.434;2024-01-15T06:18:16;16.25;;;7.68;;
76127;SDS011;64873;50.102;14.434;2024-01-15T06:20:41;15.07;;;7.07;;
76127;SDS011;64873;50.102;14.434;2024-01-15T06:23:07;16.52;;;7.38;;
76127;SDS011;64873;50.102;14.434;2024-01-15T06:25:33;16.00;;;6.82;;
76127;SDS011;64873;50.102;14.434;2024-01-15T06:27:58;14.48;;;6.93;;
76127;SDS011;64873;50.102;14.434;2024-01-15T06:30:23;17.38;;;7.20;;
76127;SDS011;64873;50.102;14.434;2024-01-15T06:32:49;10.38;;;5.40;;
76127;SDS011;64873;50.102;14.434;2024-01-15T06:35:15;13.40;;;6.30;;
76127;SDS011;64873;50.102;14.434;2024-01-15T06:37:40;13.40;;;6.25;;
76127;SDS011;64873;50.102;14.434;2024-01-15T06:40:06;11.60;;;5.68;;
76127;SDS011;64873;50.102;14.434;2024-01-15T06:42:32;12.57;;;5.53;;
76127;SDS011;64873;50.102;14.434;2024-01-15T06:44:58;14.27;;;6.63;;
76127;SDS011;64873;50.102;14.434;2024-01-15T06:47:23;14.88;;;6.38;;
76127;SDS011;64873;50.102;14.434;2024-01-15T06:49:48;16.48;;;7.22;;
76127;SDS011;64873;50.102;14.434;2024-01-15T06:52:15;16.55;;;8.40;;
76127;SDS011;64873;50.102;14.434;2024-01-15T06:54:41;13.73;;;6.75;;
76127;SDS011;64873;50.102;14.434;2024-01-15T06:57:06;16.42;;;7.70;;
76127;SDS011;64873;50.102;14.434;2024-01-15T06:59:32;16.42;;;7.53;;
76127;SDS011;64873;50.102;14.434;2024-01-15T07:01:57;15.70;;;7.57;;
76127;SDS011;64873;50.102;14.434;2024-01-15T07:04:24;20.02;;;9.75;;
76127;SDS011;64873;50.102;14.434;2024-01-15T07:06:49;13.52;;;5.78;;
76127;SDS011;64873;50.102;14.434;2024-01-15T07:09:15;18.20;;;6.53;;
76127;SDS011;64873;50.102;14.434;2024-01-15T07:11:45;17.65;;;7.13;;
76127;SDS011;64873;50.102;14.434;2024-01-15T07:14:11;20.05;;;9.02;;
76127;SDS011;64873;50.102;14.434;2024-01-15T07:16:37;12.80;;;6.80;;
76127;SDS011;64873;50.102;14.434;2024-01-15T07:19:02;15.98;;;6.05;;
76127;SDS011;64873;50.102;14.434;2024-01-15T07:21:28;12.50;;;5.38;;
76127;SDS011;64873;50.102;14.434;2024-01-15T07:23:53;16.08;;;6.40;;
76127;SDS011;64873;50.102;14.434;2024-01-15T07:26:19;12.27;;;5.95;;
76127;SDS011;64873;50.102;14.434;2024-01-15T07:28:44;13.00;;;6.22;;
76127;SDS011;64873;50.102;14.434;2024-01-15T07:31:09;10.25;;;5.18;;
76127;SDS011;64873;50.102;14.434;2024-01-15T07:33:35;15.60;;;6.63;;
76127;SDS011;64873;50.102;14.434;2024-01-15T07:36:00;10.48;;;4.75;;
76127;SDS011;64873;50.102;14.434;2024-01-15T07:38:27;9.15;;;4.65;;
76127;SDS011;64873;50.102;14.434;2024-01-15T07:40:53;14.20;;;6.65;;
76127;SDS011;64873;50.102;14.434;2024-01-15T07:43:18;15.98;;;7.60;;
76127;SDS011;64873;50.102;14.434;2024-01-15T07:45:44;14.18;;;6.03;;
76127;SDS011;64873;50.102;14.434;2024-01-15T07:48:10;12.75;;;4.75;;
76127;SDS011;64873;50.102;14.434;2024-01-15T07:50:35;16.02;;;7.82;;
76127;SDS011;64873;50.102;14.434;2024-01-15T07:53:01;11.00;;;5.25;;
76127;SDS011;64873;50.102;14.434;2024-01-15T07:55:26;10.52;;;5.30;;
76127;SDS011;64873;50.102;14.434;2024-01-15T07:57:52;11.77;;;5.60;;
76127;SDS011;64873;50.102;14.434;2024-01-15T08:00:18;10.88;;;5.47;;
76127;SDS011;64873;50.102;14.434;2024-01-15T08:02:44;13.80;;;5.70;;
76127;SDS011;64873;50.102;14.434;2024-01-15T08:05:09;11.85;;;5.55;;
76127;SDS011;64873;50.102;14.434;2024-01-15T08:07:35;11.38;;;4.97;;
76127;SDS011;64873;50.102;14.434;2024-01-15T08:10:00;12.88;;;6.78;;
76127;SDS011;64873;50.102;14.434;2024-01-15T08:12:25;8.13;;;3.72;;
76127;SDS011;64873;50.102;14.434;2024-01-15T08:14:51;13.98;;;4.68;;
76127;SDS011;64873;50.102;14.434;2024-01-15T08:17:16;16.40;;;6.65;;
76127;SDS011;64873;50.102;14.434;2024-01-15T08:19:42;13.27;;;6.40;;
76127;SDS011;64873;50.102;14.434;2024-01-15T08:22:07;11.13;;;5.65;;
76127;SDS011;64873;50.102;14.434;2024-01-15T08:24:33;8.63;;;4.30;;
76127;SDS011;64873;50.102;14.434;2024-01-15T08:26:58;9.25;;;4.38;;
76127;SDS011;64873;50.102;14.434;2024-01-15T08:29:24;15.02;;;6.95;;
76127;SDS011;64873;50.102;14.434;2024-01-15T08:31:49;13.90;;;6.90;;
76127;SDS011;64873;50.102;14.434;2024-01-15T08:34:15;14.20;;;7.25;;
76127;SDS011;64873;50.102;14.434;2024-01-15T08:36:41;13.32;;;6.70;;
76127;SDS011;64873;50.102;14.434;2024-01-15T08:39:06;12.90;;;5.15;;
76127;SDS011;64873;50.102;14.434;2024-01-15T08:41:34;10.55;;;5.93;;
76127;SDS011;64873;50.102;14.434;2024-01-15T08:43:59;13.73;;;5.43;;
76127;SDS011;64873;50.102;14.434;2024-01-15T08:46:25;6.45;;;3.47;;
76127;SDS011;64873;50.102;14.434;2024-01-15T08:48:50;13.45;;;6.50;;
76127;SDS011;64873;50.102;14.434;2024-01-15T08:51:16;12.80;;;4.47;;
76127;SDS011;64873;50.102;14.434;2024-01-15T08:53:43;11.27;;;5.72;;
76127;SDS011;64873;50.102;14.434;2024-01-15T08:56:09;11.82;;;4.88;;
76127;SDS011;64873;50.102;14.434;2024-01-15T08:58:34;9.98;;;4.28;;
76127;SDS011;64873;50.102;14.434;2024-01-15T09:01:00;12.52;;;5.00;;
76127;SDS011;64873;50.102;14.434;2024-01-15T09:03:25;10.70;;;5.00;;
76127;SDS011;64873;50.102;14.434;2024-01-15T09:05:50;7.43;;;3.83;;
76127;SDS011;64873;50.102;14.434;2024-01-15T09:08:16;12.55;;;5.82;;
76127;SDS011;64873;50.102;14.434;2024-01-15T09:13:27;10.45;;;4.40;;
76127;SDS011;64873;50.102;14.434;2024-01-15T09:15:53;10.13;;;4.55;;
76127;SDS011;64873;50.102;14.434;2024-01-15T09:18:18;10.18;;;4.20;;
76127;SDS011;64873;50.102;14.434;2024-01-15T09:20:44;13.55;;;7.00;;
76127;SDS011;64873;50.102;14.434;2024-01-15T09:23:09;11.15;;;5.18;;
76127;SDS011;64873;50.102;14.434;2024-01-15T09:25:35;12.05;;;4.68;;
76127;SDS011;64873;50.102;14.434;2024-01-15T09:28:00;8.30;;;3.72;;
76127;SDS011;64873;50.102;14.434;2024-01-15T09:30:26;11.88;;;5.30;;
76127;SDS011;64873;50.102;14.434;2024-01-15T09:32:51;9.35;;;4.38;;
76127;SDS011;64873;50.102;14.434;2024-01-15T09:35:16;12.38;;;5.95;;
76127;SDS011;64873;50.102;14.434;2024-01-15T09:37:42;7.43;;;2.92;;
76127;SDS011;64873;50.102;14.434;2024-01-15T09:40:08;11.45;;;4.68;;
76127;SDS011;64873;50.102;14.434;2024-01-15T09:42:39;8.68;;;3.33;;
76127;SDS011;64873;50.102;14.434;2024-01-15T09:45:05;11.43;;;5.25;;
76127;SDS011;64873;50.102;14.434;2024-01-15T09:47:31;11.32;;;5.75;;
76127;SDS011;64873;50.102;14.434;2024-01-15T09:49:57;11.70;;;5.57;;
76127;SDS011;64873;50.102;14.434;2024-01-15T09:52:23;9.82;;;4.88;;
76127;SDS011;64873;50.102;14.434;2024-01-15T09:54:49;10.10;;;5.68;;
76127;SDS011;64873;50.102;14.434;2024-01-15T09:57:15;16.27;;;4.38;;
76127;SDS011;64873;50.102;14.434;2024-01-15T09:59:42;6.30;;;3.45;;
76127;SDS011;64873;50.102;14.434;2024-01-15T10:02:08;13.93;;;4.10;;
76127;SDS011;64873;50.102;14.434;2024-01-15T10:04:39;10.75;;;6.57;;
76127;SDS011;64873;50.102;14.434;2024-01-15T10:07:05;5.65;;;3.10;;
76127;SDS011;64873;50.102;14.434;2024-01-15T10:09:32;8.52;;;4.97;;
76127;SDS011;64873;50.102;14.434;2024-01-15T10:11:58;8.50;;;3.25;;
76127;SDS011;64873;50.102;14.434;2024-01-15T10:14:24;8.93;;;3.80;;
76127;SDS011;64873;50.102;14.434;2024-01-15T10:16:49;9.45;;;3.72;;
76127;SDS011;64873;50.102;14.434;2024-01-15T10:19:15;10.30;;;3.13;;
76127;SDS011;64873;50.102;14.434;2024-01-15T10:21:40;12.02;;;5.28;;
76127;SDS011;64873;50.102;14.434;2024-01-15T10:24:06;10.25;;;5.10;;
76127;SDS011;64873;50.102;14.434;2024-01-15T10:26:31;8.48;;;3.65;;
76127;SDS011;64873;50.102;14.434;2024-01-15T10:29:00;11.18;;;5.13;;
76127;SDS011;64873;50.102;14.434;2024-01-15T10:31:26;9.27;;;5.10;;
76127;SDS011;64873;50.102;14.434;2024-01-15T10:33:52;8.98;;;4.35;;
76127;SDS011;64873;50.102;14.434;2024-01-15T10:36:18;10.32;;;5.75;;
76127;SDS011;64873;50.102;14.434;2024-01-15T10:38:43;10.65;;;3.67;;
76127;SDS011;64873;50.102;14.434;2024-01-15T10:41:09;11.70;;;4.38;;
76127;SDS011;64873;50.102;14.434;2024-01-15T10:43:35;8.35;;;4.45;;
76127;SDS011;64873;50.102;14.434;2024-01-15T10:46:00;6.88;;;2.92;;
76127;SDS011;64873;50.102;14.434;2024-01-15T10:48:27;8.10;;;3.70;;
76127;SDS011;64873;50.102;14.434;2024-01-15T10:50:56;12.13;;;4.57;;
76127;SDS011;64873;50.102;14.434;2024-01-15T10:53:22;6.30;;;3.47;;
76127;SDS011;64873;50.102;14.434;2024-01-15T10:55:48;8.75;;;4.18;;
76127;SDS011;64873;50.102;14.434;2024-01-15T10:58:16;12.05;;;2.85;;
76127;SDS011;64873;50.102;14.434;2024-01-15T11:00:43;11.10;;;5.45;;
76127;SDS011;64873;50.102;14.434;2024-01-15T11:03:09;6.00;;;3.00;;
76127;SDS011;64873;50.102;14.434;2024-01-15T11:08:07;10.95;;;4.22;;
76127;SDS011;64873;50.102;14.434;2024-01-15T11:10:52;9.15;;;4.57;;
76127;SDS011;64873;50.102;14.434;2024-01-15T11:13:21;8.27;;;4.25;;
76127;SDS011;64873;50.102;14.434;2024-01-15T11:16:04;8.55;;;4.20;;
76127;SDS011;64873;50.102;14.434;2024-01-15T11:18:34;10.65;;;2.75;;
76127;SDS011;64873;50.102;14.434;2024-01-15T11:24:02;3.90;;;2.17;;
76127;SDS011;64873;50.102;14.434;2024-01-15T11:29:05;6.57;;;3.78;;
76127;SDS011;64873;50.102;14.434;2024-01-15T11:34:09;8.95;;;4.78;;
76127;SDS011;64873;50.102;14.434;2024-01-15T11:39:44;15.07;;;3.97;;
76127;SDS011;64873;50.102;14.434;2024-01-15T11:42:07;10.32;;;4.25;;
76127;SDS011;64873;50.102;14.434;2024-01-15T11:44:34;8.63;;;4.18;;
76127;SDS011;64873;50.102;14.434;2024-01-15T11:47:03;9.27;;;4.22;;
76127;SDS011;64873;50.102;14.434;2024-01-15T11:52:26;6.95;;;3.92;;
76127;SDS011;64873;50.102;14.434;2024-01-15T11:55:14;6.07;;;3.33;;
76127;SDS011;64873;50.102;14.434;2024-01-15T11:57:51;7.78;;;3.97;;
76127;SDS011;64873;50.102;14.434;2024-01-15T12:00:19;9.50;;;4.50;;
76127;SDS011;64873;50.102;14.434;2024-01-15T12:02:46;8.93;;;4.10;;
76127;SDS011;64873;50.102;14.434;2024-01-15T12:05:13;10.30;;;4.35;;
76127;SDS011;64873;50.102;14.434;2024-01-15T12:07:40;7.45;;;4.25;;
76127;SDS011;64873;50.102;14.434;2024-01-15T12:10:16;6.95;;;3.25;;
76127;SDS011;64873;50.102;14.434;2024-01-15T12:15:20;9.63;;;4.88;;
76127;SDS011;64873;50.102;14.434;2024-01-15T12:17:46;6.03;;;3.50;;
76127;SDS011;64873;50.102;14.434;2024-01-15T12:20:12;6.75;;;3.25;;
76127;SDS011;64873;50.102;14.434;2024-01-15T12:22:38;11.18;;;4.18;;
76127;SDS011;64873;50.102;14.434;2024-01-15T12:25:04;11.63;;;4.20;;
76127;SDS011;64873;50.102;14.434;2024-01-15T12:27:29;7.78;;;3.28;;
76127;SDS011;64873;50.102;14.434;2024-01-15T12:29:55;10.48;;;5.10;;
76127;SDS011;64873;50.102;14.434;2024-01-15T12:32:20;7.10;;;3.85;;
76127;SDS011;64873;50.102;14.434;2024-01-15T12:34:48;8.60;;;4.18;;
76127;SDS011;64873;50.102;14.434;2024-01-15T12:37:14;7.30;;;4.32;;
76127;SDS011;64873;50.102;14.434;2024-01-15T12:39:42;7.00;;;3.78;;
76127;SDS011;64873;50.102;14.434;2024-01-15T12:42:08;10.55;;;4.10;;
76127;SDS011;64873;50.102;14.434;2024-01-15T12:44:35;10.70;;;4.10;;
76127;SDS011;64873;50.102;14.434;2024-01-15T12:47:02;13.95;;;4.30;;
76127;SDS011;64873;50.102;14.434;2024-01-15T12:49:31;9.07;;;3.67;;
76127;SDS011;64873;50.102;14.434;2024-01-15T12:51:57;10.23;;;4.75;;
76127;SDS011;64873;50.102;14.434;2024-01-15T12:54:23;9.35;;;4.07;;
76127;SDS011;64873;50.102;14.434;2024-01-15T12:56:50;6.13;;;2.88;;
76127;SDS011;64873;50.102;14.434;2024-01-15T12:59:16;8.07;;;4.03;;
76127;SDS011;64873;50.102;14.434;2024-01-15T13:01:42;9.98;;;4.50;;
76127;SDS011;64873;50.102;14.434;2024-01-15T13:04:07;9.63;;;4.03;;
76127;SDS011;64873;50.102;14.434;2024-01-15T13:06:36;5.00;;;2.63;;
76127;SDS011;64873;50.102;14.434;2024-01-15T13:09:02;8.98;;;4.28;;
76127;SDS011;64873;50.102;14.434;2024-01-15T13:11:31;8.75;;;3.42;;
76127;SDS011;64873;50.102;14.434;2024-01-15T13:13:57;6.03;;;2.88;;
76127;SDS011;64873;50.102;14.434;2024-01-15T13:16:23;7.75;;;3.80;;
76127;SDS011;64873;50.102;14.434;2024-01-15T13:18:48;7.40;;;3.65;;
76127;SDS011;64873;50.102;14.434;2024-01-15T13:21:15;8.15;;;3.97;;
76127;SDS011;64873;50.102;14.434;2024-01-15T13:23:40;8.45;;;4.20;;
76127;SDS011;64873;50.102;14.434;2024-01-15T13:26:06;6.25;;;3.45;;
76127;SDS011;64873;50.102;14.434;2024-01-15T13:28:32;9.40;;;3.67;;
76127;SDS011;64873;50.102;14.434;2024-01-15T13:30:57;7.75;;;4.15;;
76127;SDS011;64873;50.102;14.434;2024-01-15T13:33:23;9.05;;;4.10;;
76127;SDS011;64873;50.102;14.434;2024-01-15T13:35:48;8.00;;;4.13;;
76127;SDS011;64873;50.102;14.434;2024-01-15T13:38:15;6.53;;;3.47;;
76127;SDS011;64873;50.102;14.434;2024-01-15T13:40:41;7.13;;;3.00;;
76127;SDS011;64873;50.102;14.434;2024-01-15T13:43:06;8.20;;;3.92;;
76127;SDS011;64873;50.102;14.434;2024-01-15T13:45:33;5.32;;;2.92;;
76127;SDS011;64873;50.102;14.434;2024-01-15T13:48:00;6.97;;;3.17;;
76127;SDS011;64873;50.102;14.434;2024-01-15T13:50:26;12.07;;;3.72;;
76127;SDS011;64873;50.102;14.434;2024-01-15T13:52:52;8.73;;;3.35;;
76127;SDS011;64873;50.102;14.434;2024-01-15T13:55:18;11.18;;;3.53;;
76127;SDS011;64873;50.102;14.434;2024-01-15T13:57:43;11.80;;;4.15;;
76127;SDS011;64873;50.102;14.434;2024-01-15T14:00:09;7.78;;;3.65;;
76127;SDS011;64873;50.102;14.434;2024-01-15T14:02:36;7.22;;;3.63;;
76127;SDS011;64873;50.102;14.434;2024-01-15T14:05:02;6.32;;;3.00;;
76127;SDS011;64873;50.102;14.434;2024-01-15T14:07:28;7.35;;;3.78;;
76127;SDS011;64873;50.102;14.434;2024-01-15T14:09:53;12.50;;;2.80;;
76127;SDS011;64873;50.102;14.434;2024-01-15T14:12:19;8.70;;;3.33;;
76127;SDS011;64873;50.102;14.434;2024-01-15T14:14:44;27.90;;;9.80;;
76127;SDS011;64873;50.102;14.434;2024-01-15T14:17:09;13.70;;;5.03;;
76127;SDS011;64873;50.102;14.434;2024-01-15T14:19:35;6.20;;;2.60;;
76127;SDS011;64873;50.102;14.434;2024-01-15T14:22:00;7.38;;;3.28;;
76127;SDS011;64873;50.102;14.434;2024-01-15T14:24:26;7.10;;;2.63;;
76127;SDS011;64873;50.102;14.434;2024-01-15T14:26:51;12.77;;;3.35;;
76127;SDS011;64873;50.102;14.434;2024-01-15T14:29:17;6.22;;;2.80;;
76127;SDS011;64873;50.102;14.434;2024-01-15T14:31:45;5.63;;;2.58;;
76127;SDS011;64873;50.102;14.434;2024-01-15T14:34:11;8.38;;;3.33;;
76127;SDS011;64873;50.102;14.434;2024-01-15T14:36:36;8.98;;;2.42;;
76127;SDS011;64873;50.102;14.434;2024-01-15T14:39:02;7.57;;;3.25;;
76127;SDS011;64873;50.102;14.434;2024-01-15T14:41:27;7.30;;;3.47;;